createdAt,value
2022-12-22T00:02:00.581Z,30.10
2022-12-22T00:04:46.820Z,31.07
2022-12-22T00:07:34.338Z,28.93
2022-12-22T00:10:20.292Z,33.33
2022-12-22T00:13:06.527Z,30.60
2022-12-22T00:15:54.477Z,30.23
2022-12-22T00:18:40.178Z,29.10
2022-12-22T00:21:29.405Z,32.47
2022-12-22T00:24:16.596Z,32.13
2022-12-22T00:27:04.251Z,29.47
2022-12-22T00:29:55.611Z,32.23
2022-12-22T00:32:42.601Z,29.90
2022-12-22T00:35:31.942Z,29.57
2022-12-22T00:38:17.891Z,25.47
2022-12-22T00:41:05.353Z,26.00
2022-12-22T00:43:50.992Z,24.83
2022-12-22T00:46:38.033Z,28.33
2022-12-22T00:49:24.003Z,24.67
2022-12-22T00:52:10.249Z,26.50
2022-12-22T00:54:56.206Z,28.50
2022-12-22T00:57:45.278Z,28.57
2022-12-22T01:00:34.520Z,26.17
2022-12-22T01:03:20.967Z,24.37
2022-12-22T01:06:07.473Z,31.00
2022-12-22T01:08:54.255Z,23.80
2022-12-22T01:11:40.258Z,28.30
2022-12-22T01:14:30.046Z,26.13
2022-12-22T01:17:16.054Z,27.13
2022-12-22T01:20:02.141Z,26.73
2022-12-22T01:22:48.502Z,25.57
2022-12-22T01:25:36.594Z,28.70
2022-12-22T01:28:23.018Z,26.60
2022-12-22T01:31:10.650Z,28.03
2022-12-22T01:33:56.366Z,28.77
2022-12-22T01:36:42.479Z,28.47
2022-12-22T01:39:28.547Z,29.83
2022-12-22T01:42:14.520Z,27.67
2022-12-22T01:45:00.398Z,27.87
2022-12-22T01:47:51.841Z,29.87
2022-12-22T01:50:43.180Z,28.37
2022-12-22T01:53:33.589Z,24.00
2022-12-22T01:56:20.128Z,29.07
2022-12-22T01:59:09.761Z,28.53
2022-12-22T02:01:57.063Z,28.10
2022-12-22T02:04:51.560Z,26.30
2022-12-22T02:08:03.243Z,29.20
2022-12-22T02:11:17.635Z,29.10
2022-12-22T02:14:16.952Z,22.30
2022-12-22T02:17:09.550Z,32.40
2022-12-22T02:20:17.251Z,28.27
2022-12-22T02:23:11.425Z,23.73
2022-12-22T02:26:06.853Z,27.37
2022-12-22T02:28:54.865Z,27.80
2022-12-22T02:31:41.161Z,26.07
2022-12-22T02:34:32.881Z,26.10
2022-12-22T02:37:26.791Z,27.97
2022-12-22T02:40:20.066Z,26.20
2022-12-22T02:43:12.972Z,23.57
2022-12-22T02:46:07.486Z,25.97
2022-12-22T02:48:59.575Z,21.77
2022-12-22T02:51:49.713Z,25.33
2022-12-22T02:54:36.839Z,31.27
2022-12-22T02:57:24.857Z,27.53
2022-12-22T03:00:10.931Z,28.23
2022-12-22T03:02:58.711Z,36.03
2022-12-22T03:05:44.808Z,31.13
2022-12-22T03:08:30.499Z,37.23
2022-12-22T03:11:16.208Z,34.10
2022-12-22T03:14:02.173Z,35.07
2022-12-22T03:16:48.065Z,33.33
2022-12-22T03:19:35.522Z,37.57
2022-12-22T03:22:21.576Z,33.30
2022-12-22T03:25:07.729Z,40.60
2022-12-22T03:27:36.171Z,46.37
2022-12-22T03:30:05.513Z,39.83
2022-12-22T03:32:33.985Z,41.83
2022-12-22T03:35:03.799Z,47.90
2022-12-22T03:37:32.257Z,52.60
2022-12-22T03:40:00.766Z,59.50
2022-12-22T03:42:46.491Z,48.60
2022-12-22T03:45:32.657Z,55.03
2022-12-22T03:48:01.164Z,55.30
2022-12-22T03:50:30.983Z,60.13
2022-12-22T03:52:59.447Z,68.37
2022-12-22T03:55:28.153Z,63.57
2022-12-22T03:57:56.724Z,70.47
2022-12-22T04:00:25.462Z,84.10
2022-12-22T04:02:54.025Z,78.90
2022-12-22T04:05:22.608Z,89.53
2022-12-22T04:07:52.429Z,87.93
2022-12-22T04:10:38.307Z,136.50
2022-12-22T04:13:06.741Z,120.70
2022-12-22T04:15:35.418Z,122.57
2022-12-22T04:18:03.899Z,149.13
2022-12-22T04:20:32.356Z,100.57
2022-12-22T04:23:02.718Z,90.83
2022-12-22T04:25:31.156Z,116.33
2022-12-22T04:28:00.394Z,117.93
2022-12-22T04:30:28.847Z,135.67
2022-12-22T04:32:57.280Z,111.03
2022-12-22T04:35:25.750Z,78.83
2022-12-22T04:37:54.170Z,81.27
2022-12-22T04:40:24.119Z,88.10
2022-12-22T04:42:52.558Z,112.70
2022-12-22T04:45:21.080Z,94.37
2022-12-22T04:47:49.644Z,112.17
2022-12-22T04:50:18.477Z,77.37
2022-12-22T04:52:47.305Z,83.37
2022-12-22T04:55:15.924Z,97.90
2022-12-22T04:57:45.827Z,55.50
2022-12-22T05:00:15.255Z,73.10
2022-12-22T05:02:43.901Z,74.40
2022-12-22T05:05:12.434Z,64.10
2022-12-22T05:07:40.961Z,77.90
2022-12-22T05:10:11.049Z,76.50
2022-12-22T05:12:57.556Z,65.30
2022-12-22T05:15:29.684Z,67.60
2022-12-22T05:17:59.054Z,73.87
2022-12-22T05:20:27.989Z,59.80
2022-12-22T05:22:56.511Z,70.43
2022-12-22T05:25:27.502Z,69.67
2022-12-22T05:27:59.925Z,90.10
2022-12-22T05:30:29.752Z,63.37
2022-12-22T05:32:58.296Z,75.70
2022-12-22T05:35:26.769Z,61.23
2022-12-22T05:37:55.222Z,69.23
2022-12-22T05:40:23.680Z,59.20
2022-12-22T05:42:52.094Z,48.70
2022-12-22T05:45:22.097Z,71.67
2022-12-22T05:47:53.425Z,54.27
2022-12-22T05:50:24.208Z,58.63
2022-12-22T05:53:05.868Z,55.10
2022-12-22T05:55:35.243Z,52.27
2022-12-22T05:58:03.775Z,46.93
2022-12-22T06:00:33.428Z,38.70
2022-12-22T06:03:03.485Z,53.23
2022-12-22T06:05:32.051Z,50.10
2022-12-22T06:08:00.500Z,41.50
2022-12-22T06:10:29.004Z,47.17
2022-12-22T06:12:57.563Z,33.67
2022-12-22T06:15:26.016Z,42.90
2022-12-22T06:17:54.435Z,53.27
2022-12-22T06:20:24.482Z,43.63
2022-12-22T06:22:53.024Z,51.67
2022-12-22T06:25:21.481Z,47.20
2022-12-22T06:27:49.943Z,42.27
2022-12-22T06:30:18.549Z,56.17
2022-12-22T06:32:47.212Z,38.93
2022-12-22T06:35:16.146Z,48.90
2022-12-22T06:37:46.041Z,48.47
2022-12-22T06:40:15.017Z,53.10
2022-12-22T06:43:06.044Z,53.83
2022-12-22T06:45:37.805Z,43.47
2022-12-22T06:48:06.656Z,50.67
2022-12-22T06:50:35.664Z,52.67
2022-12-22T06:53:06.300Z,50.63
2022-12-22T06:55:34.793Z,59.47
2022-12-22T06:58:03.474Z,51.37
2022-12-22T07:00:31.977Z,57.50
2022-12-22T07:03:00.791Z,65.33
2022-12-22T07:05:30.467Z,74.27
2022-12-22T07:08:05.922Z,65.60
2022-12-22T07:10:55.869Z,57.47
2022-12-22T07:13:24.552Z,59.10
2022-12-22T07:15:59.937Z,56.40
2022-12-22T07:18:30.959Z,57.87
2022-12-22T07:21:01.213Z,78.67
2022-12-22T07:23:30.281Z,59.50
2022-12-22T07:26:00.389Z,61.43
2022-12-22T07:28:28.986Z,60.53
2022-12-22T07:30:57.493Z,62.40
2022-12-22T07:33:26.050Z,66.27
2022-12-22T07:36:06.086Z,52.27
2022-12-22T07:38:36.940Z,55.97
2022-12-22T07:41:28.959Z,68.17
2022-12-22T07:43:58.093Z,62.67
2022-12-22T07:46:28.606Z,58.10
2022-12-22T07:49:14.879Z,70.23
2022-12-22T07:51:44.283Z,60.13
2022-12-22T07:54:14.959Z,59.43
2022-12-22T07:56:46.530Z,64.97
2022-12-22T07:59:15.827Z,51.77
2022-12-22T08:01:45.549Z,51.27
2022-12-22T08:04:15.268Z,46.13
2022-12-22T08:06:43.835Z,51.97
2022-12-22T08:09:16.094Z,47.70
2022-12-22T08:11:45.920Z,47.17
2022-12-22T08:14:14.356Z,50.10
2022-12-22T08:16:42.872Z,53.70
2022-12-22T08:19:11.449Z,48.23
2022-12-22T08:21:39.996Z,43.47
2022-12-22T08:24:08.974Z,46.87
2022-12-22T08:26:41.696Z,43.30
2022-12-22T08:29:15.127Z,57.60
2022-12-22T08:31:44.316Z,47.10
2022-12-22T08:34:16.313Z,48.50
2022-12-22T08:36:48.386Z,51.83
2022-12-22T08:39:18.176Z,38.17
2022-12-22T08:41:52.520Z,42.37
2022-12-22T08:44:24.165Z,43.10
2022-12-22T08:46:53.717Z,48.20
2022-12-22T08:49:22.695Z,40.90
2022-12-22T08:51:51.845Z,37.47
2022-12-22T08:54:20.860Z,33.00
2022-12-22T08:56:50.118Z,36.83
2022-12-22T08:59:18.723Z,33.33
2022-12-22T09:01:50.728Z,28.20
2022-12-22T09:04:21.395Z,27.70
2022-12-22T09:06:52.524Z,27.30
2022-12-22T09:09:21.911Z,37.67
2022-12-22T09:11:50.631Z,41.63
2022-12-22T09:14:19.496Z,29.00
2022-12-22T09:16:50.493Z,32.47
2022-12-22T09:19:19.119Z,36.70
2022-12-22T09:21:47.704Z,36.20
2022-12-22T09:24:16.491Z,30.33
2022-12-22T09:26:44.969Z,24.37
2022-12-22T09:29:15.237Z,29.07
2022-12-22T09:31:43.886Z,30.67
2022-12-22T09:34:18.117Z,30.83
2022-12-22T09:36:48.277Z,37.93
2022-12-22T09:39:17.132Z,30.47
2022-12-22T09:41:49.397Z,26.93
2022-12-22T09:44:24.548Z,27.03
2022-12-22T09:46:55.158Z,23.10
2022-12-22T09:49:25.306Z,20.57
2022-12-22T09:51:57.331Z,26.90
2022-12-22T09:54:27.612Z,28.77
2022-12-22T09:56:56.727Z,26.37
2022-12-22T09:59:28.996Z,20.90
2022-12-22T10:02:06.571Z,23.20
2022-12-22T10:04:52.222Z,18.13
2022-12-22T10:07:28.501Z,13.37
2022-12-22T10:09:57.249Z,15.63
2022-12-22T10:12:27.403Z,23.00
2022-12-22T10:14:56.371Z,16.70
2022-12-22T10:17:28.175Z,17.07
2022-12-22T10:20:21.040Z,20.10
2022-12-22T10:22:51.339Z,22.80
2022-12-22T10:25:52.417Z,14.53
2022-12-22T10:28:24.378Z,20.53
2022-12-22T10:31:15.546Z,12.27
2022-12-22T10:33:47.608Z,15.17
2022-12-22T10:36:23.347Z,19.97
2022-12-22T10:39:00.166Z,15.97
2022-12-22T10:41:31.787Z,14.03
2022-12-22T10:44:02.800Z,18.00
2022-12-22T10:46:35.476Z,17.30
2022-12-22T10:49:19.128Z,12.83
2022-12-22T10:51:53.109Z,17.00
2022-12-22T10:54:30.516Z,13.53
2022-12-22T10:57:05.409Z,18.83
2022-12-22T10:59:34.735Z,21.00
2022-12-22T11:02:24.574Z,21.17
2022-12-22T11:04:54.362Z,14.87
2022-12-22T11:07:25.481Z,15.93
2022-12-22T11:09:54.061Z,15.97
2022-12-22T11:12:30.151Z,21.37
2022-12-22T11:15:05.207Z,16.33
2022-12-22T11:17:44.050Z,16.77
2022-12-22T11:20:36.456Z,23.77
2022-12-22T11:23:12.725Z,19.07
2022-12-22T11:25:49.664Z,23.40
2022-12-22T11:28:28.893Z,19.63
2022-12-22T11:31:12.291Z,21.60
2022-12-22T11:33:53.340Z,33.33
2022-12-22T11:36:29.021Z,25.20
2022-12-22T11:39:08.134Z,26.47
2022-12-22T11:41:50.869Z,27.70
2022-12-22T11:44:36.249Z,24.83
2022-12-22T11:47:14.457Z,25.67
2022-12-22T11:50:59.671Z,27.57
2022-12-22T11:53:07.097Z,24.10
2022-12-22T11:55:41.555Z,33.60
2022-12-22T11:58:26.978Z,27.90
2022-12-22T12:01:20.338Z,16.87
2022-12-22T12:04:11.347Z,15.30
2022-12-22T12:06:56.147Z,11.30
2022-12-22T12:09:40.451Z,17.37
2022-12-22T12:12:19.174Z,12.47
2022-12-22T12:14:57.582Z,14.00
2022-12-22T12:17:34.989Z,13.20
2022-12-22T12:20:40.320Z,10.13
2022-12-22T12:23:20.948Z,15.13
2022-12-22T12:25:57.613Z,17.83
2022-12-22T12:28:44.562Z,21.57
2022-12-22T12:31:20.036Z,20.00
2022-12-22T12:33:56.288Z,17.67
2022-12-22T12:36:32.072Z,13.90
2022-12-22T12:39:10.633Z,14.53
2022-12-22T12:41:48.995Z,15.30
2022-12-22T12:44:23.971Z,15.67
2022-12-22T12:47:00.242Z,23.33
2022-12-22T12:49:58.137Z,17.40
2022-12-22T12:53:05.879Z,18.17
2022-12-22T12:55:51.730Z,26.37
2022-12-22T12:58:49.407Z,23.50
2022-12-22T13:01:59.777Z,26.03
2022-12-22T13:05:13.200Z,22.77
2022-12-22T13:08:10.823Z,20.63
2022-12-22T13:10:42.656Z,29.57
2022-12-22T13:13:13.184Z,26.50
2022-12-22T13:15:45.045Z,22.37
2022-12-22T13:18:49.958Z,23.40
2022-12-22T13:24:27.638Z,29.87
2022-12-22T13:27:04.598Z,27.67
2022-12-22T13:29:42.513Z,27.57
2022-12-22T13:32:30.913Z,30.73
2022-12-22T13:35:34.812Z,31.87
2022-12-22T13:38:04.564Z,28.53
2022-12-22T13:40:40.791Z,32.93
2022-12-22T13:43:13.595Z,28.37
2022-12-22T13:45:44.926Z,35.60
2022-12-22T13:48:16.208Z,29.60
2022-12-22T13:50:49.917Z,35.40
2022-12-22T13:56:16.796Z,39.50
2022-12-22T13:58:47.680Z,36.93
2022-12-22T14:01:19.541Z,31.73
2022-12-22T14:04:00.287Z,34.87
2022-12-22T14:06:32.965Z,36.23
2022-12-22T14:09:15.523Z,30.67
2022-12-22T14:11:51.568Z,33.07
2022-12-22T14:14:25.016Z,34.40
2022-12-22T14:16:55.847Z,32.37
2022-12-22T14:19:25.732Z,36.33
2022-12-22T14:22:07.464Z,31.40
2022-12-22T14:24:42.921Z,38.77
2022-12-22T14:27:19.617Z,30.30
2022-12-22T14:29:48.498Z,31.17
2022-12-22T14:32:36.278Z,38.53
2022-12-22T14:35:05.514Z,30.03
2022-12-22T14:37:35.367Z,38.23
2022-12-22T14:40:04.131Z,40.17
2022-12-22T14:42:33.317Z,32.70
2022-12-22T14:45:02.018Z,35.13
2022-12-22T14:47:30.868Z,31.97
2022-12-22T14:50:04.218Z,35.43
2022-12-22T14:52:46.479Z,45.27
2022-12-22T14:55:26.439Z,33.73
2022-12-22T14:57:57.632Z,37.40
2022-12-22T15:00:33.216Z,41.63
2022-12-22T15:03:04.479Z,28.23
2022-12-22T15:05:36.239Z,42.17
2022-12-22T15:08:09.776Z,40.60
2022-12-22T15:10:42.197Z,39.17
2022-12-22T15:13:23.260Z,33.57
2022-12-22T15:15:52.217Z,42.47
2022-12-22T15:18:25.387Z,43.70
2022-12-22T15:20:54.130Z,38.17
2022-12-22T15:23:24.137Z,40.97
2022-12-22T15:25:52.894Z,40.70
2022-12-22T15:28:21.430Z,41.17
2022-12-22T15:30:50.017Z,48.00
2022-12-22T15:33:20.443Z,38.10
2022-12-22T15:35:49.043Z,41.17
2022-12-22T15:38:19.232Z,43.40
2022-12-22T15:40:49.576Z,40.13
2022-12-22T15:46:07.945Z,40.67
2022-12-22T15:48:39.477Z,39.07
2022-12-22T15:51:12.477Z,45.80
2022-12-22T15:53:40.901Z,38.47
2022-12-22T15:56:17.915Z,45.93
2022-12-22T15:58:46.761Z,44.60
2022-12-22T16:01:15.339Z,40.23
2022-12-22T16:03:44.196Z,42.93
2022-12-22T16:06:15.091Z,43.23
2022-12-22T16:08:47.091Z,51.17
2022-12-22T16:11:17.330Z,46.63
2022-12-22T16:13:46.699Z,44.77
2022-12-22T16:16:15.327Z,54.23
2022-12-22T16:18:43.905Z,43.67
2022-12-22T16:21:17.642Z,47.70
2022-12-22T16:23:48.889Z,50.30
2022-12-22T16:26:20.877Z,48.10
2022-12-22T16:28:49.558Z,43.77
2022-12-22T16:31:20.344Z,55.13
2022-12-22T16:33:49.700Z,46.83
2022-12-22T16:36:18.433Z,45.20
2022-12-22T16:38:47.618Z,45.07
2022-12-22T16:41:23.608Z,42.83
2022-12-22T16:43:54.175Z,39.00
2022-12-22T16:46:24.243Z,49.90
2022-12-22T16:48:54.659Z,47.20
2022-12-22T16:51:26.242Z,45.83
2022-12-22T16:53:55.201Z,41.37
2022-12-22T16:56:26.713Z,47.00
2022-12-22T16:58:55.469Z,38.67
2022-12-22T17:01:32.932Z,42.37
2022-12-22T17:04:05.450Z,34.50
2022-12-22T17:06:34.192Z,36.90
2022-12-22T17:09:03.987Z,38.33
2022-12-22T17:11:34.572Z,35.10
2022-12-22T17:14:07.546Z,39.83
2022-12-22T17:16:36.130Z,35.33
2022-12-22T17:19:04.874Z,35.17
2022-12-22T17:21:34.275Z,35.67
2022-12-22T17:24:04.685Z,31.23
2022-12-22T17:26:37.517Z,33.17
2022-12-22T17:29:06.234Z,32.23
2022-12-22T17:31:34.841Z,39.27
2022-12-22T17:34:07.126Z,31.60
2022-12-22T17:36:39.611Z,34.43
2022-12-22T17:39:13.232Z,36.47
2022-12-22T17:41:43.488Z,28.70
2022-12-22T17:44:21.787Z,28.93
2022-12-22T17:46:50.949Z,30.67
2022-12-22T17:49:21.951Z,31.50
2022-12-22T17:51:50.981Z,30.40
2022-12-22T17:54:24.559Z,26.93
2022-12-22T17:57:01.589Z,27.23
2022-12-22T17:59:30.772Z,29.63
2022-12-22T18:02:00.468Z,22.80
2022-12-22T18:04:29.197Z,27.43
2022-12-22T18:06:58.019Z,28.83
2022-12-22T18:09:27.497Z,36.87
2022-12-22T18:11:57.311Z,31.67
2022-12-22T18:14:27.390Z,25.87
2022-12-22T18:16:55.893Z,28.33
2022-12-22T18:19:24.438Z,28.00
2022-12-22T18:21:52.991Z,30.63
2022-12-22T18:24:21.536Z,29.57
2022-12-22T18:26:49.968Z,34.63
2022-12-22T18:29:20.541Z,32.43
2022-12-22T18:31:49.113Z,37.37
2022-12-22T18:34:17.760Z,29.73
2022-12-22T18:36:47.683Z,27.17
2022-12-22T18:39:18.915Z,26.73
2022-12-22T18:41:47.751Z,34.30
2022-12-22T18:44:17.787Z,32.07
2022-12-22T18:46:48.754Z,30.90
2022-12-22T18:49:17.513Z,31.10
2022-12-22T18:51:46.588Z,50.10
2022-12-22T18:54:23.870Z,40.80
2022-12-22T18:56:52.590Z,22.53
2022-12-22T18:59:25.081Z,29.27
2022-12-22T19:02:11.449Z,29.87
2022-12-22T19:04:40.046Z,30.63
2022-12-22T19:07:13.785Z,32.80
2022-12-22T19:09:42.749Z,32.07
2022-12-22T19:12:13.985Z,41.10
2022-12-22T19:14:44.231Z,37.77
2022-12-22T19:17:16.053Z,36.63
2022-12-22T19:19:44.538Z,34.00
2022-12-22T19:22:14.376Z,39.70
2022-12-22T19:24:44.815Z,57.97
2022-12-22T19:27:17.693Z,47.37
2022-12-22T19:29:46.616Z,56.03
2022-12-22T19:32:24.080Z,49.97
2022-12-22T19:34:52.981Z,48.53
2022-12-22T19:37:21.634Z,39.57
2022-12-22T19:39:50.209Z,36.17
2022-12-22T19:42:22.780Z,38.17
2022-12-22T19:44:51.386Z,51.63
2022-12-22T19:47:24.345Z,45.60
2022-12-22T19:49:52.957Z,47.00
2022-12-22T19:52:21.528Z,42.87
2022-12-22T19:54:50.060Z,44.77
2022-12-22T19:57:22.167Z,42.27
2022-12-22T19:59:53.266Z,43.93
2022-12-22T20:02:27.285Z,48.63
2022-12-22T20:04:57.149Z,53.53
2022-12-22T20:07:27.781Z,46.37
2022-12-22T20:09:56.389Z,48.83
2022-12-22T20:12:28.993Z,34.87
2022-12-22T20:14:58.073Z,41.50
2022-12-22T20:17:28.038Z,41.97
2022-12-22T20:19:56.546Z,39.67
2022-12-22T20:22:25.305Z,42.60
2022-12-22T20:24:54.701Z,40.53
2022-12-22T20:27:27.546Z,41.40
2022-12-22T20:29:56.914Z,35.77
2022-12-22T20:32:28.276Z,34.73
2022-12-22T20:34:57.289Z,29.77
2022-12-22T20:37:26.230Z,29.27
2022-12-22T20:39:54.792Z,44.07
2022-12-22T20:42:25.614Z,24.37
2022-12-22T20:45:04.108Z,28.43
2022-12-22T20:47:35.421Z,25.37
2022-12-22T20:50:04.645Z,20.90
2022-12-22T20:52:33.248Z,24.17
2022-12-22T20:55:01.696Z,20.10
2022-12-22T20:57:30.203Z,23.43
2022-12-22T20:59:58.663Z,27.57
2022-12-22T21:02:28.881Z,35.27
2022-12-22T21:04:59.168Z,19.17
2022-12-22T21:07:27.784Z,20.50
2022-12-22T21:09:56.315Z,23.47
2022-12-22T21:12:24.883Z,20.90
2022-12-22T21:14:53.399Z,15.23
2022-12-22T21:17:22.114Z,20.40
2022-12-22T21:19:50.813Z,18.97
2022-12-22T21:22:20.679Z,17.10
2022-12-22T21:24:49.319Z,14.73
2022-12-22T21:27:21.176Z,14.67
2022-12-22T21:29:49.759Z,12.20
2022-12-22T21:32:18.292Z,14.27
2022-12-22T21:34:46.778Z,10.67
2022-12-22T21:37:18.677Z,11.03
2022-12-22T21:39:48.587Z,22.73
2022-12-22T21:42:18.023Z,14.60
2022-12-22T21:44:47.043Z,18.37
2022-12-22T21:47:18.516Z,13.07
2022-12-22T21:49:47.228Z,13.20
2022-12-22T21:52:15.695Z,13.17
2022-12-22T21:54:44.142Z,15.33
2022-12-22T21:57:16.113Z,9.10
2022-12-22T21:59:44.599Z,7.87
2022-12-22T22:02:16.720Z,11.23
2022-12-22T22:04:52.083Z,16.07
2022-12-22T22:07:22.921Z,16.23
2022-12-22T22:09:51.398Z,16.10
2022-12-22T22:12:37.874Z,10.07
2022-12-22T22:15:08.017Z,13.33
2022-12-22T22:17:36.484Z,6.30
2022-12-22T22:20:06.523Z,6.67
2022-12-22T22:22:35.032Z,8.40
2022-12-22T22:25:03.689Z,12.60
2022-12-22T22:27:33.606Z,9.73
2022-12-22T22:30:02.136Z,13.50
2022-12-22T22:32:30.611Z,11.70
2022-12-22T22:34:59.181Z,18.70
2022-12-22T22:37:27.748Z,10.77
2022-12-22T22:39:56.227Z,10.67
2022-12-22T22:42:24.690Z,10.50
2022-12-22T22:44:54.553Z,10.80
2022-12-22T22:47:22.966Z,17.67
2022-12-22T22:49:51.425Z,13.90
2022-12-22T22:52:19.899Z,11.53
2022-12-22T22:54:48.316Z,16.30
2022-12-22T22:57:17.493Z,17.90
2022-12-22T22:59:46.043Z,16.90
2022-12-22T23:02:17.081Z,22.40
2022-12-22T23:04:46.178Z,17.50
2022-12-22T23:07:14.634Z,27.67
2022-12-22T23:09:43.183Z,24.70
2022-12-22T23:12:11.803Z,17.43
2022-12-22T23:14:40.272Z,20.33
2022-12-22T23:17:08.874Z,22.47
2022-12-22T23:19:38.937Z,23.03
2022-12-22T23:22:07.418Z,16.63
2022-12-22T23:24:36.036Z,22.13
2022-12-22T23:27:04.859Z,32.73
2022-12-22T23:29:33.546Z,23.27
2022-12-22T23:32:02.215Z,30.17
2022-12-22T23:34:30.889Z,26.97
2022-12-22T23:37:00.852Z,24.97
2022-12-22T23:39:29.495Z,34.07
2022-12-22T23:41:57.943Z,35.93
2022-12-22T23:44:26.706Z,25.90
2022-12-22T23:46:55.292Z,28.90
2022-12-22T23:49:24.098Z,24.70
2022-12-22T23:51:52.580Z,31.10
2022-12-22T23:54:22.420Z,33.30
2022-12-22T23:56:50.881Z,40.57
2022-12-22T23:59:19.335Z,48.03
